sensor_id;sensor_type;location;lat;lon;timestamp;P1;durP1;ratioP1;P2;durP2;ratioP2
4174;SDS011;2101;48.290;14.382;2022-07-12T00:00:58;14.30;;;1.43;;
4174;SDS011;2101;48.290;14.382;2022-07-12T00:03:39;14.80;;;1.20;;
4174;SDS011;2101;48.290;14.382;2022-07-12T00:06:35;14.20;;;1.10;;
4174;SDS011;2101;48.290;14.382;2022-07-12T00:09:56;14.90;;;1.40;;
4174;SDS011;2101;48.290;14.382;2022-07-12T00:13:12;13.60;;;1.10;;
4174;SDS011;2101;48.290;14.382;2022-07-12T00:16:09;14.90;;;0.93;;
4174;SDS011;2101;48.290;14.382;2022-07-12T00:19:23;13.97;;;1.13;;
4174;SDS011;2101;48.290;14.382;2022-07-12T00:22:21;13.67;;;1.13;;
4174;SDS011;2101;48.290;14.382;2022-07-12T00:25:13;14.20;;;1.20;;
4174;SDS011;2101;48.290;14.382;2022-07-12T00:31:35;16.10;;;1.27;;
4174;SDS011;2101;48.290;14.382;2022-07-12T00:34:55;13.60;;;0.90;;
4174;SDS011;2101;48.290;14.382;2022-07-12T00:37:54;13.70;;;1.00;;
4174;SDS011;2101;48.290;14.382;2022-07-12T00:40:21;15.93;;;1.10;;
4174;SDS011;2101;48.290;14.382;2022-07-12T00:42:50;16.30;;;1.43;;
4174;SDS011;2101;48.290;14.382;2022-07-12T00:45:17;13.57;;;1.00;;
4174;SDS011;2101;48.290;14.382;2022-07-12T00:47:46;14.43;;;1.30;;
4174;SDS011;2101;48.290;14.382;2022-07-12T00:50:14;13.67;;;1.10;;
4174;SDS011;2101;48.290;14.382;2022-07-12T00:52:41;15.13;;;1.30;;
4174;SDS011;2101;48.290;14.382;2022-07-12T00:55:08;15.10;;;1.33;;
4174;SDS011;2101;48.290;14.382;2022-07-12T00:57:35;20.53;;;1.23;;
4174;SDS011;2101;48.290;14.382;2022-07-12T01:00:02;15.10;;;1.47;;
4174;SDS011;2101;48.290;14.382;2022-07-12T01:02:33;13.67;;;1.10;;
4174;SDS011;2101;48.290;14.382;2022-07-12T01:04:59;14.23;;;1.20;;
4174;SDS011;2101;48.290;14.382;2022-07-12T01:07:25;14.20;;;1.20;;
4174;SDS011;2101;48.290;14.382;2022-07-12T01:09:55;13.70;;;1.13;;
4174;SDS011;2101;48.290;14.382;2022-07-12T01:12:22;13.30;;;0.97;;
4174;SDS011;2101;48.290;14.382;2022-07-12T01:14:48;14.10;;;1.13;;
4174;SDS011;2101;48.290;14.382;2022-07-12T01:17:17;13.13;;;0.90;;
4174;SDS011;2101;48.290;14.382;2022-07-12T01:19:44;15.07;;;1.00;;
4174;SDS011;2101;48.290;14.382;2022-07-12T01:22:10;13.67;;;1.10;;
4174;SDS011;2101;48.290;14.382;2022-07-12T01:24:37;13.63;;;0.90;;
4174;SDS011;2101;48.290;14.382;2022-07-12T01:27:03;13.93;;;1.10;;
4174;SDS011;2101;48.290;14.382;2022-07-12T01:29:31;13.50;;;1.00;;
4174;SDS011;2101;48.290;14.382;2022-07-12T01:32:03;13.70;;;1.00;;
4174;SDS011;2101;48.290;14.382;2022-07-12T01:34:49;18.03;;;1.00;;
4174;SDS011;2101;48.290;14.382;2022-07-12T01:37:16;15.07;;;1.37;;
4174;SDS011;2101;48.290;14.382;2022-07-12T01:39:47;13.70;;;1.00;;
4174;SDS011;2101;48.290;14.382;2022-07-12T01:42:13;13.87;;;0.87;;
4174;SDS011;2101;48.290;14.382;2022-07-12T01:44:42;13.60;;;1.00;;
4174;SDS011;2101;48.290;14.382;2022-07-12T01:47:08;13.50;;;0.90;;
4174;SDS011;2101;48.290;14.382;2022-07-12T01:49:36;13.57;;;0.97;;
4174;SDS011;2101;48.290;14.382;2022-07-12T01:52:02;13.60;;;0.90;;
4174;SDS011;2101;48.290;14.382;2022-07-12T01:54:32;15.00;;;1.00;;
4174;SDS011;2101;48.290;14.382;2022-07-12T01:56:58;14.30;;;1.10;;
4174;SDS011;2101;48.290;14.382;2022-07-12T01:59:25;14.00;;;1.00;;
4174;SDS011;2101;48.290;14.382;2022-07-12T02:01:54;18.60;;;1.10;;
4174;SDS011;2101;48.290;14.382;2022-07-12T02:04:20;16.10;;;1.10;;
4174;SDS011;2101;48.290;14.382;2022-07-12T02:06:47;14.07;;;1.10;;
4174;SDS011;2101;48.290;14.382;2022-07-12T02:09:14;14.27;;;1.20;;
4174;SDS011;2101;48.290;14.382;2022-07-12T02:11:40;14.37;;;1.13;;
4174;SDS011;2101;48.290;14.382;2022-07-12T02:14:07;13.60;;;0.90;;
4174;SDS011;2101;48.290;14.382;2022-07-12T02:16:33;14.93;;;1.63;;
4174;SDS011;2101;48.290;14.382;2022-07-12T02:19:00;13.80;;;0.90;;
4174;SDS011;2101;48.290;14.382;2022-07-12T02:21:26;14.03;;;1.20;;
4174;SDS011;2101;48.290;14.382;2022-07-12T02:23:53;14.43;;;0.90;;
4174;SDS011;2101;48.290;14.382;2022-07-12T02:26:21;15.90;;;1.10;;
4174;SDS011;2101;48.290;14.382;2022-07-12T02:28:52;13.20;;;0.90;;
4174;SDS011;2101;48.290;14.382;2022-07-12T02:31:18;15.23;;;1.23;;
4174;SDS011;2101;48.290;14.382;2022-07-12T02:33:44;13.33;;;1.00;;
4174;SDS011;2101;48.290;14.382;2022-07-12T02:36:12;13.47;;;1.03;;
4174;SDS011;2101;48.290;14.382;2022-07-12T02:38:38;13.40;;;1.00;;
4174;SDS011;2101;48.290;14.382;2022-07-12T02:41:05;13.87;;;1.00;;
4174;SDS011;2101;48.290;14.382;2022-07-12T02:43:31;25.13;;;1.33;;
4174;SDS011;2101;48.290;14.382;2022-07-12T02:46:05;13.50;;;1.10;;
4174;SDS011;2101;48.290;14.382;2022-07-12T02:48:31;14.17;;;1.20;;
4174;SDS011;2101;48.290;14.382;2022-07-12T02:50:58;13.57;;;1.00;;
4174;SDS011;2101;48.290;14.382;2022-07-12T02:53:25;13.23;;;1.00;;
4174;SDS011;2101;48.290;14.382;2022-07-12T02:55:51;15.70;;;1.10;;
4174;SDS011;2101;48.290;14.382;2022-07-12T02:58:17;28.30;;;1.00;;
4174;SDS011;2101;48.290;14.382;2022-07-12T03:00:44;13.57;;;1.10;;
4174;SDS011;2101;48.290;14.382;2022-07-12T03:03:11;25.80;;;1.47;;
4174;SDS011;2101;48.290;14.382;2022-07-12T03:05:38;13.60;;;0.90;;
4174;SDS011;2101;48.290;14.382;2022-07-12T03:08:04;13.40;;;1.00;;
4174;SDS011;2101;48.290;14.382;2022-07-12T03:10:31;28.73;;;1.87;;
4174;SDS011;2101;48.290;14.382;2022-07-12T03:12:57;14.53;;;1.43;;
4174;SDS011;2101;48.290;14.382;2022-07-12T03:15:23;16.10;;;1.60;;
4174;SDS011;2101;48.290;14.382;2022-07-12T03:17:49;16.70;;;2.07;;
4174;SDS011;2101;48.290;14.382;2022-07-12T03:20:16;26.83;;;3.17;;
4174;SDS011;2101;48.290;14.382;2022-07-12T03:22:46;18.20;;;3.57;;
4174;SDS011;2101;48.290;14.382;2022-07-12T03:25:15;19.43;;;2.70;;
4174;SDS011;2101;48.290;14.382;2022-07-12T03:27:44;17.33;;;2.40;;
4174;SDS011;2101;48.290;14.382;2022-07-12T03:30:14;13.63;;;1.27;;
4174;SDS011;2101;48.290;14.382;2022-07-12T03:32:40;13.90;;;1.17;;
4174;SDS011;2101;48.290;14.382;2022-07-12T03:35:07;15.97;;;1.40;;
4174;SDS011;2101;48.290;14.382;2022-07-12T03:37:43;14.33;;;1.30;;
4174;SDS011;2101;48.290;14.382;2022-07-12T03:40:10;14.30;;;1.53;;
4174;SDS011;2101;48.290;14.382;2022-07-12T03:42:36;13.90;;;1.03;;
4174;SDS011;2101;48.290;14.382;2022-07-12T03:45:03;14.87;;;1.00;;
4174;SDS011;2101;48.290;14.382;2022-07-12T03:47:31;15.70;;;1.07;;
4174;SDS011;2101;48.290;14.382;2022-07-12T03:50:00;21.83;;;1.37;;
4174;SDS011;2101;48.290;14.382;2022-07-12T03:52:31;13.77;;;1.10;;
4174;SDS011;2101;48.290;14.382;2022-07-12T03:55:03;13.87;;;1.20;;
4174;SDS011;2101;48.290;14.382;2022-07-12T03:57:31;14.57;;;1.50;;
4174;SDS011;2101;48.290;14.382;2022-07-12T03:59:58;14.67;;;1.47;;
4174;SDS011;2101;48.290;14.382;2022-07-12T04:02:27;13.33;;;0.90;;
4174;SDS011;2101;48.290;14.382;2022-07-12T04:04:54;16.87;;;1.73;;
4174;SDS011;2101;48.290;14.382;2022-07-12T04:07:23;16.50;;;1.50;;
4174;SDS011;2101;48.290;14.382;2022-07-12T04:09:49;16.03;;;1.70;;
4174;SDS011;2101;48.290;14.382;2022-07-12T04:12:19;14.30;;;1.20;;
4174;SDS011;2101;48.290;14.382;2022-07-12T04:14:49;13.87;;;1.10;;
4174;SDS011;2101;48.290;14.382;2022-07-12T04:17:15;13.37;;;0.90;;
4174;SDS011;2101;48.290;14.382;2022-07-12T04:19:42;13.87;;;1.13;;
4174;SDS011;2101;48.290;14.382;2022-07-12T04:22:08;14.17;;;1.20;;
4174;SDS011;2101;48.290;14.382;2022-07-12T04:24:34;12.93;;;0.80;;
4174;SDS011;2101;48.290;14.382;2022-07-12T04:27:00;13.60;;;1.00;;
4174;SDS011;2101;48.290;14.382;2022-07-12T04:29:26;14.10;;;1.40;;
4174;SDS011;2101;48.290;14.382;2022-07-12T04:31:53;14.27;;;1.30;;
4174;SDS011;2101;48.290;14.382;2022-07-12T04:34:19;14.30;;;1.20;;
4174;SDS011;2101;48.290;14.382;2022-07-12T04:36:45;14.30;;;1.50;;
4174;SDS011;2101;48.290;14.382;2022-07-12T04:39:12;15.13;;;1.50;;
4174;SDS011;2101;48.290;14.382;2022-07-12T04:41:39;16.87;;;1.20;;
4174;SDS011;2101;48.290;14.382;2022-07-12T04:44:08;20.40;;;1.60;;
4174;SDS011;2101;48.290;14.382;2022-07-12T04:46:34;13.93;;;1.20;;
4174;SDS011;2101;48.290;14.382;2022-07-12T04:49:00;13.47;;;1.20;;
4174;SDS011;2101;48.290;14.382;2022-07-12T04:51:27;14.80;;;1.10;;
4174;SDS011;2101;48.290;14.382;2022-07-12T04:53:53;14.50;;;1.47;;
4174;SDS011;2101;48.290;14.382;2022-07-12T04:56:21;13.17;;;1.00;;
4174;SDS011;2101;48.290;14.382;2022-07-12T04:58:48;16.20;;;1.20;;
4174;SDS011;2101;48.290;14.382;2022-07-12T05:01:14;13.60;;;1.63;;
4174;SDS011;2101;48.290;14.382;2022-07-12T05:03:41;13.10;;;1.00;;
4174;SDS011;2101;48.290;14.382;2022-07-12T05:06:10;13.63;;;1.10;;
4174;SDS011;2101;48.290;14.382;2022-07-12T05:08:56;16.60;;;1.30;;
4174;SDS011;2101;48.290;14.382;2022-07-12T05:11:34;13.40;;;1.00;;
4174;SDS011;2101;48.290;14.382;2022-07-12T05:14:00;18.50;;;1.33;;
4174;SDS011;2101;48.290;14.382;2022-07-12T05:16:26;14.83;;;1.30;;
4174;SDS011;2101;48.290;14.382;2022-07-12T05:18:53;14.17;;;1.50;;
4174;SDS011;2101;48.290;14.382;2022-07-12T05:21:19;13.13;;;1.00;;
4174;SDS011;2101;48.290;14.382;2022-07-12T05:23:45;13.70;;;1.23;;
4174;SDS011;2101;48.290;14.382;2022-07-12T05:26:11;15.70;;;1.27;;
4174;SDS011;2101;48.290;14.382;2022-07-12T05:28:37;16.03;;;1.80;;
4174;SDS011;2101;48.290;14.382;2022-07-12T05:31:04;14.03;;;1.40;;
4174;SDS011;2101;48.290;14.382;2022-07-12T05:33:30;19.23;;;1.50;;
4174;SDS011;2101;48.290;14.382;2022-07-12T05:35:56;17.33;;;1.73;;
4174;SDS011;2101;48.290;14.382;2022-07-12T05:38:22;16.10;;;1.43;;
4174;SDS011;2101;48.290;14.382;2022-07-12T05:40:48;15.30;;;1.43;;
4174;SDS011;2101;48.290;14.382;2022-07-12T05:43:14;14.83;;;1.20;;
4174;SDS011;2101;48.290;14.382;2022-07-12T05:45:41;15.17;;;1.60;;
4174;SDS011;2101;48.290;14.382;2022-07-12T05:48:07;14.50;;;1.50;;
4174;SDS011;2101;48.290;14.382;2022-07-12T05:50:33;15.80;;;1.97;;
4174;SDS011;2101;48.290;14.382;2022-07-12T05:52:59;17.47;;;1.80;;
4174;SDS011;2101;48.290;14.382;2022-07-12T05:55:44;14.50;;;1.50;;
4174;SDS011;2101;48.290;14.382;2022-07-12T05:58:10;17.37;;;2.10;;
4174;SDS011;2101;48.290;14.382;2022-07-12T06:00:36;14.70;;;1.93;;
4174;SDS011;2101;48.290;14.382;2022-07-12T06:03:02;15.90;;;1.77;;
4174;SDS011;2101;48.290;14.382;2022-07-12T06:05:28;16.43;;;1.77;;
4174;SDS011;2101;48.290;14.382;2022-07-12T06:07:54;22.80;;;1.80;;
4174;SDS011;2101;48.290;14.382;2022-07-12T06:10:21;15.70;;;1.70;;
4174;SDS011;2101;48.290;14.382;2022-07-12T06:12:47;20.73;;;1.97;;
4174;SDS011;2101;48.290;14.382;2022-07-12T06:15:15;13.93;;;1.50;;
4174;SDS011;2101;48.290;14.382;2022-07-12T06:17:41;17.33;;;1.97;;
4174;SDS011;2101;48.290;14.382;2022-07-12T06:20:08;13.80;;;1.60;;
4174;SDS011;2101;48.290;14.382;2022-07-12T06:22:34;15.60;;;1.90;;
4174;SDS011;2101;48.290;14.382;2022-07-12T06:25:02;19.30;;;2.13;;
4174;SDS011;2101;48.290;14.382;2022-07-12T06:27:28;14.27;;;1.97;;
4174;SDS011;2101;48.290;14.382;2022-07-12T06:29:55;23.80;;;2.40;;
4174;SDS011;2101;48.290;14.382;2022-07-12T06:32:21;13.90;;;1.40;;
4174;SDS011;2101;48.290;14.382;2022-07-12T06:34:49;15.03;;;1.67;;
4174;SDS011;2101;48.290;14.382;2022-07-12T06:37:16;15.30;;;1.47;;
4174;SDS011;2101;48.290;14.382;2022-07-12T06:39:43;14.37;;;1.30;;
4174;SDS011;2101;48.290;14.382;2022-07-12T06:42:10;14.00;;;1.37;;
4174;SDS011;2101;48.290;14.382;2022-07-12T06:44:37;14.53;;;1.33;;
4174;SDS011;2101;48.290;14.382;2022-07-12T06:47:04;14.80;;;1.57;;
4174;SDS011;2101;48.290;14.382;2022-07-12T06:49:30;16.20;;;1.53;;
4174;SDS011;2101;48.290;14.382;2022-07-12T06:51:56;27.20;;;3.13;;
4174;SDS011;2101;48.290;14.382;2022-07-12T06:54:24;19.57;;;3.10;;
4174;SDS011;2101;48.290;14.382;2022-07-12T06:56:50;17.37;;;3.30;;
4174;SDS011;2101;48.290;14.382;2022-07-12T06:59:17;18.27;;;3.50;;
4174;SDS011;2101;48.290;14.382;2022-07-12T07:01:43;18.37;;;2.73;;
4174;SDS011;2101;48.290;14.382;2022-07-12T07:04:12;17.80;;;3.50;;
4174;SDS011;2101;48.290;14.382;2022-07-12T07:06:40;24.40;;;3.33;;
4174;SDS011;2101;48.290;14.382;2022-07-12T07:09:07;20.90;;;4.27;;
4174;SDS011;2101;48.290;14.382;2022-07-12T07:11:34;22.93;;;3.10;;
4174;SDS011;2101;48.290;14.382;2022-07-12T07:14:02;19.50;;;3.80;;
4174;SDS011;2101;48.290;14.382;2022-07-12T07:16:28;25.60;;;3.40;;
4174;SDS011;2101;48.290;14.382;2022-07-12T07:18:54;24.70;;;3.53;;
4174;SDS011;2101;48.290;14.382;2022-07-12T07:21:20;20.80;;;4.00;;
4174;SDS011;2101;48.290;14.382;2022-07-12T07:23:50;18.37;;;3.83;;
4174;SDS011;2101;48.290;14.382;2022-07-12T07:26:19;18.93;;;3.23;;
4174;SDS011;2101;48.290;14.382;2022-07-12T07:28:46;17.47;;;3.27;;
4174;SDS011;2101;48.290;14.382;2022-07-12T07:31:35;21.37;;;3.57;;
4174;SDS011;2101;48.290;14.382;2022-07-12T07:34:01;18.23;;;3.30;;
4174;SDS011;2101;48.290;14.382;2022-07-12T07:36:28;16.50;;;3.23;;
4174;SDS011;2101;48.290;14.382;2022-07-12T07:38:54;17.57;;;3.10;;
4174;SDS011;2101;48.290;14.382;2022-07-12T07:41:22;24.20;;;3.70;;
4174;SDS011;2101;48.290;14.382;2022-07-12T07:43:52;21.83;;;3.40;;
4174;SDS011;2101;48.290;14.382;2022-07-12T07:46:18;16.30;;;3.30;;
4174;SDS011;2101;48.290;14.382;2022-07-12T07:48:44;15.60;;;2.50;;
4174;SDS011;2101;48.290;14.382;2022-07-12T07:51:10;21.67;;;3.20;;
4174;SDS011;2101;48.290;14.382;2022-07-12T07:53:37;16.70;;;2.10;;
4174;SDS011;2101;48.290;14.382;2022-07-12T07:56:04;22.73;;;2.77;;
4174;SDS011;2101;48.290;14.382;2022-07-12T07:58:31;16.33;;;2.70;;
4174;SDS011;2101;48.290;14.382;2022-07-12T08:00:58;23.10;;;2.80;;
4174;SDS011;2101;48.290;14.382;2022-07-12T08:03:27;18.57;;;2.83;;
4174;SDS011;2101;48.290;14.382;2022-07-12T08:05:53;26.30;;;2.80;;
4174;SDS011;2101;48.290;14.382;2022-07-12T08:08:22;15.13;;;2.10;;
4174;SDS011;2101;48.290;14.382;2022-07-12T08:10:50;16.27;;;1.97;;
4174;SDS011;2101;48.290;14.382;2022-07-12T08:13:16;17.20;;;2.73;;
4174;SDS011;2101;48.290;14.382;2022-07-12T08:15:43;17.65;;;2.55;;
4174;SDS011;2101;48.290;14.382;2022-07-12T08:18:09;15.15;;;2.35;;
4174;SDS011;2101;48.290;14.382;2022-07-12T08:20:35;17.42;;;2.10;;
4174;SDS011;2101;48.290;14.382;2022-07-12T08:23:02;18.52;;;2.33;;
4174;SDS011;2101;48.290;14.382;2022-07-12T08:25:29;17.13;;;2.28;;
4174;SDS011;2101;48.290;14.382;2022-07-12T08:27:56;15.80;;;2.08;;
4174;SDS011;2101;48.290;14.382;2022-07-12T08:30:22;21.50;;;2.47;;
4174;SDS011;2101;48.290;14.382;2022-07-12T08:32:50;16.00;;;1.77;;
4174;SDS011;2101;48.290;14.382;2022-07-12T08:35:18;15.90;;;1.40;;
4174;SDS011;2101;48.290;14.382;2022-07-12T08:37:45;13.37;;;1.30;;
4174;SDS011;2101;48.290;14.382;2022-07-12T08:40:12;15.27;;;1.20;;
4174;SDS011;2101;48.290;14.382;2022-07-12T08:42:41;17.10;;;1.73;;
4174;SDS011;2101;48.290;14.382;2022-07-12T08:45:08;13.18;;;1.23;;
4174;SDS011;2101;48.290;14.382;2022-07-12T08:47:36;13.70;;;1.52;;
4174;SDS011;2101;48.290;14.382;2022-07-12T08:50:14;12.65;;;1.05;;
4174;SDS011;2101;48.290;14.382;2022-07-12T08:52:51;11.85;;;0.80;;
4174;SDS011;2101;48.290;14.382;2022-07-12T08:55:26;13.55;;;1.00;;
4174;SDS011;2101;48.290;14.382;2022-07-12T08:58:00;12.40;;;1.13;;
4174;SDS011;2101;48.290;14.382;2022-07-12T09:00:27;16.60;;;1.42;;
4174;SDS011;2101;48.290;14.382;2022-07-12T09:02:54;13.73;;;1.33;;
4174;SDS011;2101;48.290;14.382;2022-07-12T09:05:23;12.63;;;1.08;;
4174;SDS011;2101;48.290;14.382;2022-07-12T09:07:51;13.90;;;1.63;;
4174;SDS011;2101;48.290;14.382;2022-07-12T09:10:18;13.20;;;1.30;;
4174;SDS011;2101;48.290;14.382;2022-07-12T09:12:45;12.00;;;0.80;;
4174;SDS011;2101;48.290;14.382;2022-07-12T09:15:18;12.73;;;1.00;;
4174;SDS011;2101;48.290;14.382;2022-07-12T09:17:59;12.80;;;0.90;;
4174;SDS011;2101;48.290;14.382;2022-07-12T09:20:35;12.80;;;0.80;;
4174;SDS011;2101;48.290;14.382;2022-07-12T09:23:11;13.03;;;0.90;;
4174;SDS011;2101;48.290;14.382;2022-07-12T09:25:37;12.97;;;1.00;;
4174;SDS011;2101;48.290;14.382;2022-07-12T09:28:09;12.50;;;0.90;;
4174;SDS011;2101;48.290;14.382;2022-07-12T09:30:36;13.07;;;0.87;;
4174;SDS011;2101;48.290;14.382;2022-07-12T09:33:03;12.47;;;0.90;;
4174;SDS011;2101;48.290;14.382;2022-07-12T09:38:53;15.50;;;1.07;;
4174;SDS011;2101;48.290;14.382;2022-07-12T09:41:33;14.07;;;1.00;;
4174;SDS011;2101;48.290;14.382;2022-07-12T09:44:00;13.40;;;1.10;;
4174;SDS011;2101;48.290;14.382;2022-07-12T09:46:26;13.23;;;0.90;;
4174;SDS011;2101;48.290;14.382;2022-07-12T09:48:53;14.83;;;0.90;;
4174;SDS011;2101;48.290;14.382;2022-07-12T09:51:19;13.00;;;0.90;;
4174;SDS011;2101;48.290;14.382;2022-07-12T09:53:47;12.80;;;0.90;;
4174;SDS011;2101;48.290;14.382;2022-07-12T09:56:15;13.63;;;0.77;;
4174;SDS011;2101;48.290;14.382;2022-07-12T09:58:54;13.00;;;0.93;;
4174;SDS011;2101;48.290;14.382;2022-07-12T10:01:22;15.40;;;1.07;;
4174;SDS011;2101;48.290;14.382;2022-07-12T10:03:49;15.87;;;1.00;;
4174;SDS011;2101;48.290;14.382;2022-07-12T10:06:24;16.07;;;1.00;;
4174;SDS011;2101;48.290;14.382;2022-07-12T10:08:50;14.07;;;0.90;;
4174;SDS011;2101;48.290;14.382;2022-07-12T10:11:17;15.77;;;0.97;;
4174;SDS011;2101;48.290;14.382;2022-07-12T10:13:44;15.90;;;1.03;;
4174;SDS011;2101;48.290;14.382;2022-07-12T10:16:11;12.93;;;0.80;;
4174;SDS011;2101;48.290;14.382;2022-07-12T10:18:39;13.90;;;1.10;;
4174;SDS011;2101;48.290;14.382;2022-07-12T10:21:18;14.10;;;1.00;;
4174;SDS011;2101;48.290;14.382;2022-07-12T10:23:45;15.40;;;1.53;;
4174;SDS011;2101;48.290;14.382;2022-07-12T10:31:25;16.23;;;1.50;;
4174;SDS011;2101;48.290;14.382;2022-07-12T10:34:26;14.13;;;1.17;;
4174;SDS011;2101;48.290;14.382;2022-07-12T10:39:24;13.00;;;0.90;;
4174;SDS011;2101;48.290;14.382;2022-07-12T10:44:36;15.93;;;1.00;;
4174;SDS011;2101;48.290;14.382;2022-07-12T10:47:03;14.87;;;1.00;;
4174;SDS011;2101;48.290;14.382;2022-07-12T10:49:29;12.97;;;0.90;;
4174;SDS011;2101;48.290;14.382;2022-07-12T10:54:38;14.13;;;1.40;;
4174;SDS011;2101;48.290;14.382;2022-07-12T10:57:05;18.70;;;1.60;;
4174;SDS011;2101;48.290;14.382;2022-07-12T10:59:36;12.87;;;0.73;;
4174;SDS011;2101;48.290;14.382;2022-07-12T11:02:02;13.03;;;0.80;;
4174;SDS011;2101;48.290;14.382;2022-07-12T11:04:29;13.23;;;0.80;;
4174;SDS011;2101;48.290;14.382;2022-07-12T11:07:32;17.83;;;1.03;;
4174;SDS011;2101;48.290;14.382;2022-07-12T11:09:59;13.30;;;0.80;;
4174;SDS011;2101;48.290;14.382;2022-07-12T11:12:31;14.27;;;1.10;;
4174;SDS011;2101;48.290;14.382;2022-07-12T11:15:00;13.30;;;0.90;;
4174;SDS011;2101;48.290;14.382;2022-07-12T11:17:30;14.10;;;0.90;;
4174;SDS011;2101;48.290;14.382;2022-07-12T11:20:03;14.00;;;0.87;;
4174;SDS011;2101;48.290;14.382;2022-07-12T11:22:30;12.63;;;0.80;;
4174;SDS011;2101;48.290;14.382;2022-07-12T11:24:57;13.47;;;0.80;;
4174;SDS011;2101;48.290;14.382;2022-07-12T11:27:25;13.50;;;0.87;;
4174;SDS011;2101;48.290;14.382;2022-07-12T11:30:00;13.00;;;0.90;;
4174;SDS011;2101;48.290;14.382;2022-07-12T11:32:35;14.10;;;0.90;;
4174;SDS011;2101;48.290;14.382;2022-07-12T11:35:02;12.77;;;0.87;;
4174;SDS011;2101;48.290;14.382;2022-07-12T11:37:28;13.43;;;0.80;;
4174;SDS011;2101;48.290;14.382;2022-07-12T11:39:55;14.90;;;0.80;;
4174;SDS011;2101;48.290;14.382;2022-07-12T11:42:22;14.20;;;0.90;;
4174;SDS011;2101;48.290;14.382;2022-07-12T11:44:50;17.07;;;0.93;;
4174;SDS011;2101;48.290;14.382;2022-07-12T11:47:20;13.50;;;0.90;;
4174;SDS011;2101;48.290;14.382;2022-07-12T11:52:13;13.50;;;0.90;;
4174;SDS011;2101;48.290;14.382;2022-07-12T11:54:39;12.50;;;0.80;;
4174;SDS011;2101;48.290;14.382;2022-07-12T11:57:06;12.77;;;0.70;;
4174;SDS011;2101;48.290;14.382;2022-07-12T11:59:32;13.33;;;0.80;;
4174;SDS011;2101;48.290;14.382;2022-07-12T12:02:02;13.03;;;0.80;;
4174;SDS011;2101;48.290;14.382;2022-07-12T12:04:28;13.83;;;0.90;;
4174;SDS011;2101;48.290;14.382;2022-07-12T12:06:54;13.50;;;1.00;;
4174;SDS011;2101;48.290;14.382;2022-07-12T12:09:21;12.90;;;0.90;;
4174;SDS011;2101;48.290;14.382;2022-07-12T12:11:47;13.27;;;0.83;;
4174;SDS011;2101;48.290;14.382;2022-07-12T12:14:13;15.30;;;0.90;;
4174;SDS011;2101;48.290;14.382;2022-07-12T12:16:39;12.63;;;0.80;;
4174;SDS011;2101;48.290;14.382;2022-07-12T12:19:10;13.17;;;0.90;;
4174;SDS011;2101;48.290;14.382;2022-07-12T12:21:36;13.10;;;1.00;;
4174;SDS011;2101;48.290;14.382;2022-07-12T12:24:09;13.70;;;0.80;;
4174;SDS011;2101;48.290;14.382;2022-07-12T12:26:35;13.00;;;1.10;;
4174;SDS011;2101;48.290;14.382;2022-07-12T12:29:01;14.40;;;1.03;;
4174;SDS011;2101;48.290;14.382;2022-07-12T12:31:28;12.70;;;0.80;;
4174;SDS011;2101;48.290;14.382;2022-07-12T12:33:54;12.73;;;0.80;;
4174;SDS011;2101;48.290;14.382;2022-07-12T12:38:50;13.50;;;0.70;;
4174;SDS011;2101;48.290;14.382;2022-07-12T12:41:17;13.33;;;0.90;;
4174;SDS011;2101;48.290;14.382;2022-07-12T12:43:44;12.70;;;0.80;;
4174;SDS011;2101;48.290;14.382;2022-07-12T12:46:10;12.80;;;0.80;;
4174;SDS011;2101;48.290;14.382;2022-07-12T12:48:37;13.10;;;1.00;;
4174;SDS011;2101;48.290;14.382;2022-07-12T12:51:11;13.30;;;1.00;;
4174;SDS011;2101;48.290;14.382;2022-07-12T12:53:39;15.50;;;1.10;;
4174;SDS011;2101;48.290;14.382;2022-07-12T12:56:09;13.60;;;0.80;;
4174;SDS011;2101;48.290;14.382;2022-07-12T12:58:36;12.93;;;0.90;;
4174;SDS011;2101;48.290;14.382;2022-07-12T13:01:03;16.50;;;1.00;;
4174;SDS011;2101;48.290;14.382;2022-07-12T13:03:29;13.30;;;0.73;;
4174;SDS011;2101;48.290;14.382;2022-07-12T13:05:55;14.70;;;1.10;;
4174;SDS011;2101;48.290;14.382;2022-07-12T13:08:22;12.67;;;0.70;;
4174;SDS011;2101;48.290;14.382;2022-07-12T13:10:49;13.33;;;0.93;;
4174;SDS011;2101;48.290;14.382;2022-07-12T13:13:38;13.60;;;1.00;;
4174;SDS011;2101;48.290;14.382;2022-07-12T13:16:05;14.40;;;1.10;;
4174;SDS011;2101;48.290;14.382;2022-07-12T13:18:31;12.83;;;0.80;;
4174;SDS011;2101;48.290;14.382;2022-07-12T13:20:57;12.80;;;0.90;;
4174;SDS011;2101;48.290;14.382;2022-07-12T13:23:23;14.40;;;0.90;;
4174;SDS011;2101;48.290;14.382;2022-07-12T13:25:50;13.07;;;0.80;;
4174;SDS011;2101;48.290;14.382;2022-07-12T13:28:16;12.70;;;0.83;;
4174;SDS011;2101;48.290;14.382;2022-07-12T13:30:42;20.47;;;1.00;;
4174;SDS011;2101;48.290;14.382;2022-07-12T13:33:08;17.90;;;0.80;;
4174;SDS011;2101;48.290;14.382;2022-07-12T13:35:34;13.13;;;0.80;;
4174;SDS011;2101;48.290;14.382;2022-07-12T13:38:00;13.33;;;1.00;;
4174;SDS011;2101;48.290;14.382;2022-07-12T13:40:26;13.17;;;1.10;;
4174;SDS011;2101;48.290;14.382;2022-07-12T13:42:52;13.40;;;0.90;;
4174;SDS011;2101;48.290;14.382;2022-07-12T13:45:19;12.67;;;0.70;;
4174;SDS011;2101;48.290;14.382;2022-07-12T13:47:46;15.00;;;1.37;;
4174;SDS011;2101;48.290;14.382;2022-07-12T13:50:13;15.67;;;0.97;;
4174;SDS011;2101;48.290;14.382;2022-07-12T13:52:40;13.30;;;0.93;;
4174;SDS011;2101;48.290;14.382;2022-07-12T13:55:07;12.33;;;0.70;;
4174;SDS011;2101;48.290;14.382;2022-07-12T13:57:35;12.57;;;0.70;;
4174;SDS011;2101;48.290;14.382;2022-07-12T14:00:02;12.40;;;0.80;;
4174;SDS011;2101;48.290;14.382;2022-07-12T14:02:28;15.33;;;1.00;;
4174;SDS011;2101;48.290;14.382;2022-07-12T14:04:55;21.07;;;0.80;;
4174;SDS011;2101;48.290;14.382;2022-07-12T14:07:21;12.87;;;0.80;;
4174;SDS011;2101;48.290;14.382;2022-07-12T14:09:47;13.63;;;1.10;;
4174;SDS011;2101;48.290;14.382;2022-07-12T14:12:13;14.27;;;1.00;;
4174;SDS011;2101;48.290;14.382;2022-07-12T14:14:40;12.80;;;0.97;;
4174;SDS011;2101;48.290;14.382;2022-07-12T14:17:24;12.90;;;0.80;;
4174;SDS011;2101;48.290;14.382;2022-07-12T14:19:50;12.53;;;0.70;;
4174;SDS011;2101;48.290;14.382;2022-07-12T14:22:16;12.97;;;0.80;;
4174;SDS011;2101;48.290;14.382;2022-07-12T14:24:42;13.17;;;0.90;;
4174;SDS011;2101;48.290;14.382;2022-07-12T14:27:09;12.97;;;0.87;;
4174;SDS011;2101;48.290;14.382;2022-07-12T14:29:35;12.37;;;0.70;;
4174;SDS011;2101;48.290;14.382;2022-07-12T14:32:01;12.90;;;0.90;;
4174;SDS011;2101;48.290;14.382;2022-07-12T14:34:27;13.47;;;1.00;;
4174;SDS011;2101;48.290;14.382;2022-07-12T14:36:53;12.80;;;0.90;;
4174;SDS011;2101;48.290;14.382;2022-07-12T14:39:20;15.07;;;0.90;;
4174;SDS011;2101;48.290;14.382;2022-07-12T14:41:46;13.13;;;1.00;;
4174;SDS011;2101;48.290;14.382;2022-07-12T14:44:12;12.97;;;0.80;;
4174;SDS011;2101;48.290;14.382;2022-07-12T14:46:38;17.70;;;0.90;;
4174;SDS011;2101;48.290;14.382;2022-07-12T14:49:04;15.83;;;1.07;;
4174;SDS011;2101;48.290;14.382;2022-07-12T14:51:31;13.33;;;0.90;;
4174;SDS011;2101;48.290;14.382;2022-07-12T14:53:57;15.30;;;0.70;;
4174;SDS011;2101;48.290;14.382;2022-07-12T14:56:23;12.73;;;0.70;;
4174;SDS011;2101;48.290;14.382;2022-07-12T14:58:49;13.17;;;0.80;;
4174;SDS011;2101;48.290;14.382;2022-07-12T15:01:15;12.57;;;0.70;;
4174;SDS011;2101;48.290;14.382;2022-07-12T15:03:41;13.40;;;0.70;;
4174;SDS011;2101;48.290;14.382;2022-07-12T15:06:07;14.27;;;1.10;;
4174;SDS011;2101;48.290;14.382;2022-07-12T15:08:33;12.97;;;0.80;;
4174;SDS011;2101;48.290;14.382;2022-07-12T15:10:59;13.40;;;1.00;;
4174;SDS011;2101;48.290;14.382;2022-07-12T15:13:28;13.80;;;0.83;;
4174;SDS011;2101;48.290;14.382;2022-07-12T15:15:55;13.30;;;0.90;;
4174;SDS011;2101;48.290;14.382;2022-07-12T15:18:21;14.20;;;1.00;;
4174;SDS011;2101;48.290;14.382;2022-07-12T15:20:49;13.40;;;0.83;;
4174;SDS011;2101;48.290;14.382;2022-07-12T15:23:15;13.00;;;0.83;;